createdAt,value
2022-12-28T00:01:45.472Z,98007.41
2022-12-28T00:03:49.066Z,98017.72
2022-12-28T00:05:51.687Z,97997.13
2022-12-28T00:07:54.254Z,98001.41
2022-12-28T00:09:56.817Z,97997.16
2022-12-28T00:12:01.155Z,97995.47
2022-12-28T00:14:03.754Z,97989.44
2022-12-28T00:16:11.614Z,97993.78
2022-12-28T00:18:14.181Z,97983.63
2022-12-28T00:20:16.974Z,97984.44
2022-12-28T00:22:19.570Z,97982.75
2022-12-28T00:24:24.613Z,97974.94
2022-12-28T00:26:28.154Z,97970.63
2022-12-28T00:28:32.072Z,97976.56
2022-12-28T00:30:34.619Z,97980.81
2022-12-28T00:32:37.207Z,97978.16
2022-12-28T00:34:39.765Z,97979.03
2022-12-28T00:37:10.312Z,97976.44
2022-12-28T00:39:05.177Z,97966.19
2022-12-28T00:41:09.014Z,97973.03
2022-12-28T00:43:11.629Z,97971.31
2022-12-28T00:45:15.630Z,97973.88
2022-12-28T00:47:18.177Z,97966.97
2022-12-28T00:49:20.725Z,97963.53
2022-12-28T00:51:23.301Z,97970.41
2022-12-28T00:53:25.848Z,97964.47
2022-12-28T00:55:28.401Z,97967.91
2022-12-28T00:57:32.039Z,97966.25
2022-12-28T00:59:34.687Z,97970.53
2022-12-28T01:01:38.826Z,97971.38
2022-12-28T01:03:41.718Z,97966.25
2022-12-28T01:05:44.256Z,97962.81
2022-12-28T01:07:46.827Z,97959.41
2022-12-28T01:09:49.353Z,97957.66
2022-12-28T01:11:54.266Z,97950.81
2022-12-28T01:13:59.533Z,97953.38
2022-12-28T01:16:02.142Z,97948.25
2022-12-28T01:18:06.318Z,97946.56
2022-12-28T01:20:10.181Z,97941.41
2022-12-28T01:22:14.436Z,97940.53
2022-12-28T01:24:17.180Z,97940.59
2022-12-28T01:26:19.741Z,97938.03
2022-12-28T01:28:22.254Z,97928.56
2022-12-28T01:30:24.895Z,97938.91
2022-12-28T01:32:27.486Z,97930.38
2022-12-28T01:34:31.396Z,97926.03
2022-12-28T01:36:35.842Z,97930.31
2022-12-28T01:38:38.396Z,97914.91
2022-12-28T01:40:43.711Z,97914.03
2022-12-28T01:42:46.253Z,97909.72
2022-12-28T01:44:49.825Z,97913.16
2022-12-28T01:46:54.930Z,97916.63
2022-12-28T01:49:03.986Z,97912.28
2022-12-28T01:51:08.899Z,97909.72
2022-12-28T01:53:11.950Z,97902.88
2022-12-28T01:55:17.288Z,97886.56
2022-12-28T01:57:22.505Z,97877.13
2022-12-28T01:59:29.469Z,97874.56
2022-12-28T02:01:32.792Z,97874.56
2022-12-28T02:03:36.471Z,97870.28
2022-12-28T02:05:41.977Z,97875.44
2022-12-28T02:07:53.965Z,97863.44
2022-12-28T02:10:43.530Z,97862.56
2022-12-28T02:12:19.650Z,97860.88
2022-12-28T02:14:23.297Z,97863.44
2022-12-28T02:16:25.904Z,97859.16
2022-12-28T02:18:28.965Z,97846.28
2022-12-28T02:20:41.820Z,97850.56
2022-12-28T02:23:08.512Z,97844.56
2022-12-28T02:25:40.847Z,97842.00
2022-12-28T02:27:57.844Z,97841.19
2022-12-28T02:30:06.870Z,97847.19
2022-12-28T02:32:22.659Z,97841.16
2022-12-28T02:34:28.568Z,97836.00
2022-12-28T02:36:38.038Z,97840.31
2022-12-28T02:38:46.028Z,97832.59
2022-12-28T02:40:53.846Z,97830.91
2022-12-28T02:42:56.506Z,97828.31
2022-12-28T02:45:16.760Z,97831.78
2022-12-28T02:47:37.981Z,97828.34
2022-12-28T02:49:58.331Z,97830.09
2022-12-28T02:52:09.716Z,97830.09
2022-12-28T02:55:02.121Z,97825.81
2022-12-28T02:57:15.039Z,97808.66
2022-12-28T02:59:30.164Z,97814.66
2022-12-28T03:01:54.167Z,97809.50
2022-12-28T03:04:08.056Z,97806.94
2022-12-28T03:06:36.853Z,97794.06
2022-12-28T03:08:46.941Z,97788.03
2022-12-28T03:10:55.786Z,97774.31
2022-12-28T03:13:02.468Z,97780.31
2022-12-28T03:15:09.556Z,97784.63
2022-12-28T03:17:31.790Z,97771.72
2022-12-28T03:19:56.820Z,97767.44
2022-12-28T03:22:17.729Z,97764.84
2022-12-28T03:24:38.494Z,97758.84
2022-12-28T03:27:03.126Z,97764.00
2022-12-28T03:29:26.523Z,97760.56
2022-12-28T03:31:31.330Z,97753.69
2022-12-28T03:33:36.916Z,97752.84
2022-12-28T03:35:47.678Z,97745.97
2022-12-28T03:37:57.745Z,97744.25
2022-12-28T03:40:06.566Z,97745.94
2022-12-28T03:42:33.206Z,97748.53
2022-12-28T03:44:36.908Z,97739.94
2022-12-28T03:46:46.793Z,97743.38
2022-12-28T03:48:51.366Z,97742.50
2022-12-28T03:50:56.458Z,97733.09
2022-12-28T03:52:59.406Z,97739.06
2022-12-28T03:55:02.168Z,97745.94
2022-12-28T03:57:04.855Z,97744.22
2022-12-28T03:59:08.141Z,97750.25
2022-12-28T04:01:12.346Z,97746.75
2022-12-28T04:03:15.075Z,97743.31
2022-12-28T04:05:17.783Z,97739.03
2022-12-28T04:07:21.715Z,97733.00
2022-12-28T04:09:24.316Z,97737.31
2022-12-28T04:11:27.002Z,97731.25
2022-12-28T04:13:30.540Z,97729.56
2022-12-28T04:15:33.126Z,97730.44
2022-12-28T04:17:35.767Z,97722.69
2022-12-28T04:19:38.360Z,97727.84
2022-12-28T04:21:40.952Z,97720.94
2022-12-28T04:23:44.861Z,97724.41
2022-12-28T04:25:57.561Z,97730.38
2022-12-28T04:28:00.132Z,97726.06
2022-12-28T04:30:02.756Z,97719.19
2022-12-28T04:32:05.654Z,97715.75
2022-12-28T04:34:08.420Z,97711.44
2022-12-28T04:36:14.522Z,97704.53
2022-12-28T04:38:17.347Z,97695.09
2022-12-28T04:40:21.277Z,97697.69
2022-12-28T04:42:23.891Z,97698.59
2022-12-28T04:44:26.451Z,97696.00
2022-12-28T04:46:29.104Z,97694.28
2022-12-28T04:48:32.655Z,97695.16
2022-12-28T04:50:37.048Z,97696.06
2022-12-28T04:52:42.716Z,97696.03
2022-12-28T04:54:45.286Z,97692.59
2022-12-28T04:56:49.259Z,97698.59
2022-12-28T04:58:55.733Z,97696.03
2022-12-28T05:01:03.466Z,97702.03
2022-12-28T05:03:06.600Z,97690.84
2022-12-28T05:05:10.203Z,97695.16
2022-12-28T05:07:12.853Z,97698.59
2022-12-28T05:09:15.445Z,97692.56
2022-12-28T05:11:20.150Z,97693.44
2022-12-28T05:13:24.079Z,97690.00
2022-12-28T05:15:26.672Z,97700.31
2022-12-28T05:17:29.191Z,97690.84
2022-12-28T05:19:31.848Z,97695.13
2022-12-28T05:21:34.413Z,97699.44
2022-12-28T05:23:38.744Z,97696.81
2022-12-28T05:25:41.310Z,97694.25
2022-12-28T05:27:43.868Z,97691.69
2022-12-28T05:29:47.797Z,97689.09
2022-12-28T05:31:50.393Z,97689.09
2022-12-28T05:33:53.451Z,97687.38
2022-12-28T05:35:56.048Z,97685.66
2022-12-28T05:37:58.599Z,97693.41
2022-12-28T05:40:01.698Z,97689.06
2022-12-28T05:42:04.466Z,97690.78
2022-12-28T05:44:07.502Z,97690.75
2022-12-28T05:46:14.093Z,97684.72
2022-12-28T05:48:16.688Z,97676.97
2022-12-28T05:50:19.296Z,97683.84
2022-12-28T05:52:21.842Z,97690.72
2022-12-28T05:54:24.385Z,97694.16
2022-12-28T05:56:29.250Z,97693.19
2022-12-28T05:58:32.061Z,97696.66
2022-12-28T06:00:34.586Z,97693.19
2022-12-28T06:02:38.570Z,97692.34
2022-12-28T06:04:41.245Z,97687.16
2022-12-28T06:06:44.357Z,97682.88
2022-12-28T06:08:48.532Z,97681.94
2022-12-28T06:10:51.184Z,97680.28
2022-12-28T06:12:53.743Z,97675.97
2022-12-28T06:14:56.277Z,97673.44
2022-12-28T06:16:58.906Z,97670.91
2022-12-28T06:19:06.508Z,97666.59
2022-12-28T06:21:12.286Z,97664.03
2022-12-28T06:23:14.977Z,97661.47
2022-12-28T06:25:17.699Z,97659.75
2022-12-28T06:27:20.226Z,97659.72
2022-12-28T06:29:22.841Z,97660.59
2022-12-28T06:31:27.410Z,97652.81
2022-12-28T06:33:30.292Z,97645.97
2022-12-28T06:35:34.223Z,97644.22
2022-12-28T06:37:36.837Z,97640.75
2022-12-28T06:39:39.403Z,97642.50
2022-12-28T06:41:42.488Z,97639.88
2022-12-28T06:43:46.293Z,97635.56
2022-12-28T06:45:56.471Z,97626.09
2022-12-28T06:47:59.054Z,97626.00
2022-12-28T06:50:01.611Z,97625.22
2022-12-28T06:52:05.772Z,97629.41
2022-12-28T06:54:09.560Z,97618.28
2022-12-28T06:56:14.279Z,97622.59
2022-12-28T06:58:16.860Z,97633.78
2022-12-28T07:00:19.575Z,97626.88
2022-12-28T07:02:22.357Z,97629.50
2022-12-28T07:04:25.038Z,97627.78
2022-12-28T07:06:30.048Z,97634.63
2022-12-28T07:08:34.506Z,97638.91
2022-12-28T07:10:37.258Z,97634.56
2022-12-28T07:12:39.817Z,97628.53
2022-12-28T07:14:42.399Z,97630.22
2022-12-28T07:16:44.999Z,97623.31
2022-12-28T07:18:48.285Z,97623.31
2022-12-28T07:20:50.886Z,97628.50
2022-12-28T07:22:54.543Z,97628.47
2022-12-28T07:24:58.459Z,97625.88
2022-12-28T07:27:01.028Z,97616.44
2022-12-28T07:29:06.112Z,97619.81
2022-12-28T07:31:10.105Z,97614.66
2022-12-28T07:33:12.693Z,97623.19
2022-12-28T07:35:15.288Z,97610.22
2022-12-28T07:37:17.972Z,97608.53
2022-12-28T07:39:21.038Z,97615.34
2022-12-28T07:41:27.948Z,97618.69
2022-12-28T07:43:30.805Z,97614.28
2022-12-28T07:45:33.524Z,97610.84
2022-12-28T07:47:36.099Z,97604.75
2022-12-28T07:49:38.640Z,97601.34
2022-12-28T07:51:41.409Z,97599.53
2022-12-28T07:53:45.178Z,97603.78
2022-12-28T07:55:57.096Z,97609.84
2022-12-28T07:58:03.258Z,97600.28
2022-12-28T08:00:07.476Z,97594.31
2022-12-28T08:02:10.534Z,97599.28
2022-12-28T08:04:17.113Z,97593.31
2022-12-28T08:06:22.436Z,97593.16
2022-12-28T08:08:25.079Z,97593.03
2022-12-28T08:10:27.704Z,97586.94
2022-12-28T08:12:30.306Z,97593.06
2022-12-28T08:14:36.817Z,97592.22
2022-12-28T08:16:41.247Z,97584.41
2022-12-28T08:18:44.003Z,97588.63
2022-12-28T08:20:46.552Z,97582.56
2022-12-28T08:22:49.181Z,97586.91
2022-12-28T08:24:52.315Z,97582.69
2022-12-28T08:26:55.000Z,97584.97
2022-12-28T08:28:59.185Z,97590.19
2022-12-28T08:31:08.216Z,97585.91
2022-12-28T08:33:10.813Z,97581.59
2022-12-28T08:35:13.383Z,97588.41
2022-12-28T08:37:15.989Z,97579.91
2022-12-28T08:39:18.581Z,97579.13
2022-12-28T08:41:22.898Z,97579.78
2022-12-28T08:43:25.594Z,97585.03
2022-12-28T08:45:28.215Z,97578.66
2022-12-28T08:47:32.122Z,97580.38
2022-12-28T08:49:34.743Z,97580.50
2022-12-28T08:51:39.762Z,97590.78
2022-12-28T08:53:43.133Z,97582.28
2022-12-28T08:55:45.811Z,97593.16
2022-12-28T08:57:48.475Z,97587.91
2022-12-28T08:59:51.081Z,97586.09
2022-12-28T09:01:53.704Z,97581.00
2022-12-28T09:03:59.799Z,97585.41
2022-12-28T09:06:03.945Z,97581.91
2022-12-28T09:08:07.263Z,97574.09
2022-12-28T09:10:10.275Z,97582.78
2022-12-28T09:12:12.861Z,97578.25
2022-12-28T09:14:22.552Z,97579.22
2022-12-28T09:16:28.150Z,97573.31
2022-12-28T09:18:31.084Z,97573.19
2022-12-28T09:20:36.246Z,97573.94
2022-12-28T09:22:38.801Z,97570.34
2022-12-28T09:24:41.485Z,97578.13
2022-12-28T09:26:44.574Z,97575.44
2022-12-28T09:28:48.762Z,97564.19
2022-12-28T09:30:51.406Z,97572.03
2022-12-28T09:33:15.255Z,97569.47
2022-12-28T09:35:17.869Z,97562.63
2022-12-28T09:37:21.799Z,97562.38
2022-12-28T09:39:25.301Z,97563.13
2022-12-28T09:41:31.364Z,97563.06
2022-12-28T09:43:34.174Z,97564.00
2022-12-28T09:45:37.356Z,97562.00
2022-12-28T09:47:47.151Z,97559.44
2022-12-28T09:50:01.098Z,97559.56
2022-12-28T09:52:19.513Z,97551.47
2022-12-28T09:54:23.497Z,97556.72
2022-12-28T09:56:31.572Z,97549.78
2022-12-28T09:58:37.766Z,97553.13
2022-12-28T10:00:44.881Z,97539.00
2022-12-28T10:02:52.941Z,97546.22
2022-12-28T10:04:55.717Z,97550.47
2022-12-28T10:07:01.862Z,97539.13
2022-12-28T10:09:06.815Z,97542.63
2022-12-28T10:11:17.871Z,97539.00
2022-12-28T10:15:46.090Z,97526.66
2022-12-28T10:17:48.741Z,97527.56
2022-12-28T10:19:51.713Z,97524.19
2022-12-28T10:22:00.213Z,97529.09
2022-12-28T10:26:33.609Z,97520.63
2022-12-28T10:28:48.801Z,97516.31
2022-12-28T10:31:05.876Z,97513.63
2022-12-28T10:33:16.591Z,97512.53
2022-12-28T10:35:27.744Z,97508.91
2022-12-28T10:37:32.823Z,97504.50
2022-12-28T10:39:35.462Z,97503.66
2022-12-28T10:41:41.089Z,97497.75
2022-12-28T10:43:46.658Z,97485.47
2022-12-28T10:45:51.170Z,97492.13
2022-12-28T10:47:56.219Z,97486.66
2022-12-28T10:52:22.157Z,97484.91
2022-12-28T10:54:28.070Z,97481.97
2022-12-28T10:56:50.426Z,97478.50
2022-12-28T10:58:54.891Z,97475.19
2022-12-28T11:00:59.333Z,97481.16
2022-12-28T11:03:18.484Z,97467.22
2022-12-28T11:05:23.169Z,97464.53
2022-12-28T11:07:34.476Z,97456.00
2022-12-28T11:09:37.328Z,97462.16
2022-12-28T11:11:42.101Z,97462.78
2022-12-28T11:13:48.510Z,97452.31
2022-12-28T11:15:51.091Z,97448.94
2022-12-28T11:17:56.938Z,97455.72
2022-12-28T11:20:07.960Z,97449.88
2022-12-28T11:22:13.116Z,97451.22
2022-12-28T11:24:17.322Z,97445.78
2022-12-28T11:26:21.023Z,97435.56
2022-12-28T11:28:24.075Z,97437.16
2022-12-28T11:30:28.876Z,97431.13
2022-12-28T11:32:36.958Z,97435.38
2022-12-28T11:34:39.956Z,97430.13
2022-12-28T11:36:42.894Z,97425.25
2022-12-28T11:38:50.724Z,97425.25
2022-12-28T11:40:55.109Z,97422.69
2022-12-28T11:42:57.800Z,97419.59
2022-12-28T11:45:01.190Z,97420.63
2022-12-28T11:47:23.619Z,97417.03
2022-12-28T11:49:39.469Z,97410.09
2022-12-28T11:51:42.059Z,97413.66
2022-12-28T11:53:54.041Z,97404.47
2022-12-28T11:56:04.801Z,97399.59
2022-12-28T11:58:53.315Z,97393.78
2022-12-28T12:00:56.752Z,97390.56
2022-12-28T12:03:02.363Z,97385.97
2022-12-28T12:05:37.589Z,97386.69
2022-12-28T12:07:48.429Z,97389.06
2022-12-28T12:10:13.809Z,97384.16
2022-12-28T12:12:37.526Z,97372.81
2022-12-28T12:14:43.821Z,97375.25
2022-12-28T12:16:49.923Z,97371.22
2022-12-28T12:18:56.934Z,97368.44
2022-12-28T12:21:04.185Z,97357.41
2022-12-28T12:23:11.595Z,97359.19
2022-12-28T12:25:21.019Z,97355.69
2022-12-28T12:27:36.567Z,97352.13
2022-12-28T12:29:42.290Z,97355.41
2022-12-28T12:31:49.580Z,97350.97
2022-12-28T12:33:59.020Z,97352.50
2022-12-28T12:36:10.056Z,97348.38
2022-12-28T12:38:25.550Z,97343.09
2022-12-28T12:40:50.657Z,97338.06
2022-12-28T12:43:10.679Z,97334.91
2022-12-28T12:45:22.788Z,97332.34
2022-12-28T12:47:53.420Z,97329.31
2022-12-28T12:50:31.815Z,97317.41
2022-12-28T12:52:42.439Z,97313.38
2022-12-28T12:54:58.161Z,97310.50
2022-12-28T12:57:04.672Z,97304.34
2022-12-28T12:59:25.200Z,97310.47
2022-12-28T13:01:37.951Z,97295.53
2022-12-28T13:03:45.290Z,97295.44
2022-12-28T13:05:53.939Z,97294.31
2022-12-28T13:07:59.043Z,97296.00
2022-12-28T13:10:04.588Z,97289.13
2022-12-28T13:12:15.241Z,97313.22
2022-12-28T13:14:20.736Z,97305.25
2022-12-28T13:16:25.805Z,97285.28
2022-12-28T13:18:45.347Z,97279.03
2022-12-28T13:20:57.799Z,97282.41
2022-12-28T13:23:00.518Z,97289.88
2022-12-28T13:25:03.111Z,97292.50
2022-12-28T13:27:19.891Z,97286.94
2022-12-28T13:29:24.386Z,97283.47
2022-12-28T13:31:34.393Z,97286.47
2022-12-28T13:33:36.962Z,97282.72
2022-12-28T13:35:39.553Z,97275.66
2022-12-28T13:37:43.526Z,97278.50
2022-12-28T13:39:47.846Z,97274.38
2022-12-28T13:41:52.946Z,97267.34
2022-12-28T13:44:29.230Z,97272.53
2022-12-28T13:46:32.689Z,97266.75
2022-12-28T13:48:37.705Z,97264.66
2022-12-28T13:50:41.713Z,97264.75
2022-12-28T13:52:50.218Z,97264.09
2022-12-28T13:54:57.874Z,97256.44
2022-12-28T13:57:36.011Z,97252.56
2022-12-28T13:59:23.898Z,97254.59
2022-12-28T14:01:31.604Z,97250.38
2022-12-28T14:03:41.432Z,97244.53
2022-12-28T14:05:49.581Z,97255.84
2022-12-28T14:08:03.030Z,97261.03
2022-12-28T14:10:06.572Z,97259.47
2022-12-28T14:12:10.598Z,97257.69
2022-12-28T14:14:13.949Z,97257.63
2022-12-28T14:16:17.159Z,97255.03
2022-12-28T14:18:20.514Z,97250.28
2022-12-28T14:20:23.163Z,97253.94
2022-12-28T14:22:27.767Z,97252.13
2022-12-28T14:24:31.732Z,97252.09
2022-12-28T14:26:35.353Z,97249.50
2022-12-28T14:28:42.110Z,97240.41
2022-12-28T14:30:44.828Z,97239.09
2022-12-28T14:32:47.600Z,97237.66
2022-12-28T14:34:55.722Z,97234.97
2022-12-28T14:37:02.721Z,97236.56
2022-12-28T14:39:06.644Z,97226.47
2022-12-28T14:41:19.645Z,97223.88
2022-12-28T14:43:26.805Z,97229.91
2022-12-28T14:46:04.966Z,97223.63
2022-12-28T14:48:02.240Z,97216.88
2022-12-28T14:50:16.677Z,97221.47
2022-12-28T14:52:47.797Z,97220.50
2022-12-28T14:54:51.836Z,97220.44
2022-12-28T14:57:00.434Z,97209.50
2022-12-28T14:59:03.934Z,97212.09
2022-12-28T15:01:09.582Z,97204.97
2022-12-28T15:03:17.989Z,97203.53
2022-12-28T15:05:42.026Z,97212.47
2022-12-28T15:07:44.624Z,97204.50
2022-12-28T15:09:47.190Z,97206.28
2022-12-28T15:11:49.812Z,97205.75
2022-12-28T15:13:54.082Z,97200.59
2022-12-28T15:15:59.033Z,97202.28
2022-12-28T15:18:01.694Z,97199.06
2022-12-28T15:20:05.068Z,97206.69
2022-12-28T15:22:07.799Z,97204.78
2022-12-28T15:24:10.392Z,97201.41
2022-12-28T15:26:14.328Z,97201.56
2022-12-28T15:28:17.322Z,97207.53
2022-12-28T15:30:27.398Z,97202.28
2022-12-28T15:32:31.637Z,97199.88
2022-12-28T15:34:34.218Z,97192.09
2022-12-28T15:36:36.893Z,97195.66
2022-12-28T15:38:39.483Z,97194.19
2022-12-28T15:40:42.087Z,97196.72
2022-12-28T15:42:46.234Z,97187.50
2022-12-28T15:44:51.083Z,97192.66
2022-12-28T15:46:55.134Z,97182.56
2022-12-28T15:48:57.777Z,97192.03
2022-12-28T15:51:00.416Z,97185.25
2022-12-28T15:53:02.961Z,97189.53
2022-12-28T15:55:06.396Z,97188.81
2022-12-28T15:57:10.754Z,97181.94
2022-12-28T15:59:15.242Z,97179.19
2022-12-28T16:01:17.994Z,97176.34
2022-12-28T16:03:22.611Z,97172.84
2022-12-28T16:05:25.318Z,97170.91
2022-12-28T16:07:27.915Z,97176.25
2022-12-28T16:09:30.465Z,97172.56
2022-12-28T16:11:34.107Z,97169.84
2022-12-28T16:13:36.719Z,97170.25
2022-12-28T16:15:39.368Z,97172.94
2022-12-28T16:17:51.369Z,97180.53
2022-12-28T16:19:59.503Z,97178.13
2022-12-28T16:22:02.094Z,97173.94
2022-12-28T16:24:05.079Z,97169.69
2022-12-28T16:26:09.013Z,97161.69
2022-12-28T16:28:11.564Z,97160.81
2022-12-28T16:30:14.583Z,97161.50
2022-12-28T16:32:17.195Z,97155.16
2022-12-28T16:34:19.826Z,97154.22
2022-12-28T16:36:24.545Z,97158.72
2022-12-28T16:38:29.321Z,97153.19
2022-12-28T16:40:31.905Z,97148.88
2022-12-28T16:42:34.489Z,97140.84
2022-12-28T16:44:37.231Z,97143.81
2022-12-28T16:46:39.827Z,97142.88
2022-12-28T16:48:42.654Z,97131.44
2022-12-28T16:50:45.435Z,97134.72
2022-12-28T16:52:49.335Z,97132.53
2022-12-28T16:54:52.308Z,97128.06
2022-12-28T16:56:55.323Z,97124.59
2022-12-28T16:58:58.610Z,97130.31
2022-12-28T17:01:07.174Z,97120.13
2022-12-28T17:03:10.048Z,97115.84
2022-12-28T17:05:12.742Z,97110.81
2022-12-28T17:07:15.353Z,97116.22
2022-12-28T17:09:19.837Z,97117.19
2022-12-28T17:11:22.483Z,97117.91
2022-12-28T17:13:25.100Z,97115.09
2022-12-28T17:15:27.660Z,97116.31
2022-12-28T17:17:30.194Z,97117.13
2022-12-28T17:19:32.799Z,97122.19
2022-12-28T17:21:35.461Z,97116.31
2022-12-28T17:23:39.298Z,97106.19
2022-12-28T17:25:44.442Z,97109.63
2022-12-28T17:27:47.004Z,97109.91
2022-12-28T17:29:50.453Z,97099.53
2022-12-28T17:31:53.133Z,97107.16
2022-12-28T17:33:58.588Z,97103.59
2022-12-28T17:36:02.183Z,97101.78
2022-12-28T17:38:05.035Z,97100.13
2022-12-28T17:40:08.850Z,97101.56
2022-12-28T17:42:12.834Z,97095.44
2022-12-28T17:44:15.515Z,97099.88
2022-12-28T17:46:18.464Z,97093.06
2022-12-28T17:48:26.922Z,97092.25
2022-12-28T17:50:29.467Z,97094.09
2022-12-28T17:52:32.039Z,97095.75
2022-12-28T17:54:34.926Z,97087.91
2022-12-28T17:56:37.710Z,97083.44
2022-12-28T17:58:42.569Z,97087.22
2022-12-28T18:00:48.012Z,97085.59
2022-12-28T18:02:50.872Z,97080.59
2022-12-28T18:04:53.624Z,97082.28
2022-12-28T18:06:56.267Z,97077.44
2022-12-28T18:08:58.868Z,97078.88
2022-12-28T18:11:01.459Z,97071.28
2022-12-28T18:13:04.044Z,97070.00
2022-12-28T18:15:09.021Z,97069.59
2022-12-28T18:17:11.610Z,97057.28
2022-12-28T18:19:14.469Z,97062.69
2022-12-28T18:21:21.729Z,97057.22
2022-12-28T18:23:24.822Z,97056.53
2022-12-28T18:25:27.441Z,97051.88
2022-12-28T18:27:30.091Z,97044.84
2022-12-28T18:29:32.651Z,97039.00
2022-12-28T18:31:36.627Z,97029.28
2022-12-28T18:33:39.688Z,97024.69
2022-12-28T18:35:42.313Z,97026.69
2022-12-28T18:37:44.886Z,97009.50
2022-12-28T18:39:47.438Z,97016.34
2022-12-28T18:41:49.997Z,97019.00
2022-12-28T18:43:52.637Z,97023.34
2022-12-28T18:45:56.660Z,97014.72
2022-12-28T18:48:00.964Z,97027.88
2022-12-28T18:50:03.591Z,97020.31
2022-12-28T18:52:06.754Z,97015.16
2022-12-28T18:54:09.415Z,97018.91
2022-12-28T18:56:14.101Z,97021.53
2022-12-28T18:58:16.651Z,97011.16
2022-12-28T19:00:19.580Z,97011.72
2022-12-28T19:02:22.267Z,97001.44
2022-12-28T19:04:27.528Z,96998.34
2022-12-28T19:06:30.334Z,96998.06
2022-12-28T19:08:34.406Z,97000.56
2022-12-28T19:10:39.469Z,96996.63
2022-12-28T19:12:43.261Z,96994.56
2022-12-28T19:14:45.795Z,96985.94
2022-12-28T19:16:48.339Z,96984.44
2022-12-28T19:18:50.909Z,96981.00
2022-12-28T19:20:58.758Z,96985.19
2022-12-28T19:23:01.352Z,96978.44
2022-12-28T19:25:04.111Z,96977.53
2022-12-28T19:27:06.721Z,96969.81
2022-12-28T19:29:11.100Z,96970.66
2022-12-28T19:31:13.831Z,96965.66
2022-12-28T19:33:16.401Z,96975.03
2022-12-28T19:35:18.928Z,96969.63
2022-12-28T19:37:23.348Z,96963.53
2022-12-28T19:39:26.502Z,96961.84
2022-12-28T19:41:29.062Z,96946.38
2022-12-28T19:43:31.813Z,96953.56
2022-12-28T19:45:34.455Z,96946.59
2022-12-28T19:47:37.038Z,96944.34
2022-12-28T19:49:39.586Z,96950.44
2022-12-28T19:51:42.644Z,96945.13
2022-12-28T19:53:46.545Z,96946.00
2022-12-28T19:55:49.117Z,96948.06
2022-12-28T19:57:52.356Z,96944.34
2022-12-28T19:59:54.941Z,96944.44
2022-12-28T20:01:57.586Z,96942.66
2022-12-28T20:04:00.311Z,96953.34
2022-12-28T20:06:07.876Z,96947.53
2022-12-28T20:08:10.458Z,96943.44
2022-12-28T20:10:14.864Z,96949.28
2022-12-28T20:12:19.219Z,96930.06
2022-12-28T20:14:24.939Z,96938.81
2022-12-28T20:16:30.006Z,96938.97
2022-12-28T20:18:32.614Z,96934.44
2022-12-28T20:21:09.025Z,96931.25
2022-12-28T20:22:57.871Z,96932.59
2022-12-28T20:25:00.426Z,96932.59
2022-12-28T20:27:04.415Z,96936.81
2022-12-28T20:29:06.974Z,96931.03
2022-12-28T20:31:13.149Z,96934.44
2022-12-28T20:33:16.198Z,96935.63
2022-12-28T20:35:19.511Z,96937.47
2022-12-28T20:37:22.034Z,96939.16
2022-12-28T20:39:27.661Z,96940.97
2022-12-28T20:41:49.862Z,96928.66
2022-12-28T20:43:53.790Z,96946.22
2022-12-28T20:45:56.437Z,96937.63
2022-12-28T20:47:59.020Z,96938.59
2022-12-28T20:50:03.881Z,96933.47
2022-12-28T20:52:06.471Z,96933.53
2022-12-28T20:54:10.800Z,96936.13
2022-12-28T20:56:13.441Z,96927.91
2022-12-28T20:58:16.087Z,96927.53
2022-12-28T21:00:20.715Z,96928.53
2022-12-28T21:02:23.461Z,96935.47
2022-12-28T21:04:26.171Z,96924.22
2022-12-28T21:06:28.967Z,96921.34
2022-12-28T21:08:32.080Z,96924.91
2022-12-28T21:10:34.642Z,96927.19
2022-12-28T21:12:37.246Z,96928.03
2022-12-28T21:14:39.788Z,96920.53
2022-12-28T21:16:43.753Z,96908.34
2022-12-28T21:18:46.404Z,96913.69
2022-12-28T21:20:53.643Z,96913.66
2022-12-28T21:22:56.199Z,96911.31
2022-12-28T21:24:58.823Z,96915.16
2022-12-28T21:27:01.426Z,96916.69
2022-12-28T21:29:03.937Z,96917.44
2022-12-28T21:31:07.416Z,96915.63
2022-12-28T21:33:11.388Z,96915.00
2022-12-28T21:35:13.964Z,96908.72
2022-12-28T21:37:34.119Z,96906.88
2022-12-28T21:39:36.683Z,96895.50
2022-12-28T21:41:51.268Z,96898.28
2022-12-28T21:43:53.858Z,96899.25
2022-12-28T21:46:01.984Z,96889.56
2022-12-28T21:48:05.803Z,96886.44
2022-12-28T21:50:11.649Z,96894.28
2022-12-28T21:52:14.253Z,96882.19
2022-12-28T21:54:18.504Z,96888.28
2022-12-28T21:56:21.027Z,96885.69
2022-12-28T21:58:23.659Z,96886.38
2022-12-28T22:00:55.229Z,96884.59
2022-12-28T22:03:15.676Z,96877.78
2022-12-28T22:05:37.356Z,96875.88
2022-12-28T22:07:39.934Z,96873.53
2022-12-28T22:10:00.281Z,96870.78
2022-12-28T22:12:20.307Z,96871.19
2022-12-28T22:14:22.898Z,96869.00
2022-12-28T22:16:24.669Z,96863.94
2022-12-28T22:18:53.144Z,96865.59
2022-12-28T22:20:54.382Z,96872.63
2022-12-28T22:22:58.681Z,96870.78
2022-12-28T22:25:01.297Z,96872.81
2022-12-28T22:27:04.035Z,96870.91
2022-12-28T22:29:06.638Z,96868.44
2022-12-28T22:31:09.582Z,96871.03
2022-12-28T22:33:12.197Z,96868.59
2022-12-28T22:35:15.121Z,96876.56
2022-12-28T22:37:19.505Z,96878.31
2022-12-28T22:39:22.335Z,96870.56
2022-12-28T22:41:25.181Z,96859.28
2022-12-28T22:43:27.732Z,96864.56
2022-12-28T22:45:30.352Z,96864.47
2022-12-28T22:47:32.885Z,96855.94
2022-12-28T22:49:35.519Z,96852.50
2022-12-28T22:51:40.239Z,96853.38
2022-12-28T22:53:44.582Z,96850.72
2022-12-28T22:55:57.364Z,96856.03
2022-12-28T22:57:59.949Z,96850.84
2022-12-28T23:00:02.599Z,96849.09
2022-12-28T23:02:05.366Z,96845.59
2022-12-28T23:04:08.291Z,96849.94
2022-12-28T23:06:12.552Z,96849.69
2022-12-28T23:08:15.098Z,96842.84
2022-12-28T23:10:19.345Z,96851.53
2022-12-28T23:12:21.971Z,96842.88
2022-12-28T23:14:43.545Z,96839.41
2022-12-28T23:16:46.263Z,96836.75
2022-12-28T23:19:06.721Z,96834.28
2022-12-28T23:21:34.022Z,96829.91
2022-12-28T23:23:54.151Z,96831.94
2022-12-28T23:26:18.710Z,96828.59
2022-12-28T23:28:21.371Z,96824.38
2022-12-28T23:30:23.971Z,96824.44
2022-12-28T23:32:26.561Z,96818.44
2022-12-28T23:34:29.142Z,96816.66
2022-12-28T23:36:33.474Z,96812.38
2022-12-28T23:38:36.048Z,96817.47
2022-12-28T23:40:39.758Z,96816.41
2022-12-28T23:42:44.469Z,96810.22
2022-12-28T23:44:49.131Z,96802.16
2022-12-28T23:46:58.628Z,96806.09
2022-12-28T23:49:01.733Z,96808.75
2022-12-28T23:51:08.134Z,96802.63
2022-12-28T23:53:11.100Z,96804.06
2022-12-28T23:55:13.737Z,96806.41
2022-12-28T23:57:16.347Z,96809.31
2022-12-28T23:59:20.244Z,96800.72
